< Typhoon 200320 2003 Season Typhoon 200401 >
Typhoon 200321 (LUPIT)
General InformationTrack Information on Google MapsDetailed Wind InformationAccess Analytics MapList of All Images || NewsDisaster Info.WeblogResourceGoogle EarthGE AnimationAtom FeedGeoJSON
Detalied Best Track (Time Zone = UTC)
Year Month Day Hour Lat. Long. Pressure (hPa) Wind (kt) Class Image Chart
2003 11 18 12 9.5 164.5 1004 0 2 Image Chart
2003 11 18 18 9.0 163.8 1002 0 2 Image Chart
2003 11 19 00 9.0 163.6 1002 0 2 Image Chart
2003 11 19 06 8.9 163.2 1002 0 2 Image Chart
2003 11 19 12 8.8 162.6 1002 0 2 Image Chart
2003 11 19 18 8.8 162.2 1002 0 2 Image Chart
2003 11 20 00 8.9 162.0 1004 0 2 Image Chart
2003 11 20 06 8.9 160.9 1002 0 2 Image Chart
2003 11 20 12 8.8 160.5 1004 0 2 Image Chart
2003 11 20 18 8.7 160.2 1000 0 2 Image Chart
2003 11 21 00 8.6 159.7 1000 0 2 Image Chart
2003 11 21 06 8.8 158.5 1000 0 2 Image Chart
2003 11 21 12 8.9 156.7 998 35 3 Image Chart
2003 11 21 18 8.6 154.9 992 45 3 Image Chart
2003 11 22 00 8.5 153.6 985 50 4 Image Chart
2003 11 22 06 8.7 152.1 985 50 4 Image Chart
2003 11 22 12 8.8 150.6 980 50 4 Image Chart
2003 11 22 18 8.4 149.5 980 50 4 Image Chart
2003 11 23 00 8.0 148.2 975 55 4 Image Chart
2003 11 23 06 8.1 147.1 970 60 4 Image Chart
2003 11 23 12 8.0 145.7 965 70 5 Image Chart
2003 11 23 18 7.7 144.5 960 75 5 Image Chart
2003 11 24 00 7.8 144.1 955 75 5 Image Chart
2003 11 24 06 8.5 143.5 955 75 5 Image Chart
2003 11 24 12 9.0 142.6 955 75 5 Image Chart
2003 11 24 18 9.9 141.7 955 75 5 Image Chart
2003 11 25 00 10.4 140.4 955 75 5 Image Chart
2003 11 25 06 11.4 138.8 950 80 5 Image Chart
2003 11 25 12 11.8 137.7 945 80 5 Image Chart
2003 11 25 18 12.2 137.1 940 85 5 Image Chart
2003 11 26 00 12.6 136.8 935 90 5 Image Chart
2003 11 26 06 13.1 136.6 925 95 5 Image Chart
2003 11 26 12 13.5 136.0 920 100 5 Image Chart
2003 11 26 18 13.9 135.4 915 100 5 Image Chart
2003 11 27 00 14.0 134.9 915 100 5 Image Chart
2003 11 27 06 14.4 134.5 915 100 5 Image Chart
2003 11 27 12 14.9 133.9 915 100 5 Image Chart
2003 11 27 18 15.2 133.4 915 100 5 Image Chart
2003 11 28 00 15.5 133.0 920 100 5 Image Chart
2003 11 28 06 16.1 132.6 925 95 5 Image Chart
2003 11 28 12 16.8 132.0 930 90 5 Image Chart
2003 11 28 18 17.6 131.5 935 85 5 Image Chart
2003 11 29 00 18.4 131.1 935 85 5 Image Chart
2003 11 29 06 19.2 130.9 940 85 5 Image Chart
2003 11 29 12 19.9 131.0 940 85 5 Image Chart
2003 11 29 18 20.8 131.8 940 85 5 Image Chart
2003 11 30 00 21.8 132.6 945 80 5 Image Chart
2003 11 30 06 23.2 134.0 945 80 5 Image Chart
2003 11 30 12 24.7 135.7 945 80 5 Image Chart
2003 11 30 18 26.1 137.6 950 80 5 Image Chart
2003 12 1 00 26.9 139.1 960 70 5 Image Chart
2003 12 1 03 28.2 140.0 965 65 5 Image Chart
2003 12 1 06 29.3 140.3 970 60 4 Image Chart
2003 12 1 09 30.4 141.0 970 60 4 Image Chart
2003 12 1 12 30.9 141.7 975 60 4 Image Chart
2003 12 1 18 32.2 144.1 975 60 4 Image Chart
2003 12 2 00 34.3 146.1 980 55 4 Image Chart
2003 12 2 06 35.5 147.4 980 55 4 Image Chart
2003 12 2 12 36.7 149.7 980 0 6 Image Chart
2003 12 2 18 38.0 152.7 980 0 6 Image Chart
2003 12 3 00 39.3 156.2 980 0 6 Image Chart
2003 12 3 06 40.9 159.8 980 0 6 Image Chart
Japan Meteorological Agency Best Track Data | Correction Date : 2004-02-17
< Typhoon 200320 2003 Season Typhoon 200401 >

Help